createdAt,value
2023-03-07T00:02:01.359Z,64.40
2023-03-07T00:04:28.106Z,64.40
2023-03-07T00:06:56.285Z,64.40
2023-03-07T00:09:23.214Z,64.50
2023-03-07T00:11:50.714Z,64.50
2023-03-07T00:14:17.522Z,64.40
2023-03-07T00:16:44.437Z,64.40
2023-03-07T00:19:11.475Z,64.30
2023-03-07T00:21:38.331Z,64.30
2023-03-07T00:24:05.913Z,64.10
2023-03-07T00:26:33.424Z,63.90
2023-03-07T00:29:00.222Z,63.90
2023-03-07T00:31:27.507Z,63.80
2023-03-07T00:33:54.342Z,63.60
2023-03-07T00:36:22.869Z,63.60
2023-03-07T00:38:50.511Z,63.60
2023-03-07T00:41:20.133Z,63.60
2023-03-07T00:43:47.395Z,63.40
2023-03-07T00:46:15.566Z,63.20
2023-03-07T00:48:43.314Z,63.10
2023-03-07T00:51:12.750Z,63.20
2023-03-07T00:53:40.614Z,63.20
2023-03-07T00:56:28.550Z,63.20
2023-03-07T00:58:55.311Z,63.00
2023-03-07T01:01:24.662Z,63.10
2023-03-07T01:03:53.646Z,63.20
2023-03-07T01:06:24.618Z,63.30
2023-03-07T01:08:53.535Z,63.20
2023-03-07T01:11:20.358Z,62.90
2023-03-07T01:13:47.375Z,63.50
2023-03-07T01:16:20.589Z,63.00
2023-03-07T01:18:53.336Z,63.00
2023-03-07T01:21:29.761Z,62.90
2023-03-07T01:23:58.482Z,62.80
2023-03-07T01:26:28.350Z,62.60
2023-03-07T01:28:57.901Z,62.70
2023-03-07T01:31:25.594Z,62.60
2023-03-07T01:33:53.952Z,62.70
2023-03-07T01:36:25.409Z,62.60
2023-03-07T01:38:55.583Z,62.50
2023-03-07T01:41:22.847Z,62.50
2023-03-07T01:43:51.571Z,62.60
2023-03-07T01:46:30.103Z,62.40
2023-03-07T01:49:05.081Z,62.40
2023-03-07T01:51:36.432Z,62.40
2023-03-07T01:54:06.787Z,62.50
2023-03-07T01:56:35.611Z,62.40
2023-03-07T01:59:02.532Z,62.20
2023-03-07T02:01:29.602Z,62.20
2023-03-07T02:04:08.382Z,62.20
2023-03-07T02:06:38.369Z,62.30
2023-03-07T02:09:13.324Z,63.00
2023-03-07T02:11:45.391Z,62.40
2023-03-07T02:14:13.451Z,62.30
2023-03-07T02:16:40.862Z,62.40
2023-03-07T02:19:30.491Z,62.40
2023-03-07T02:22:11.759Z,62.40
2023-03-07T02:25:07.666Z,62.40
2023-03-07T02:27:37.129Z,62.60
2023-03-07T02:30:05.785Z,62.50
2023-03-07T02:32:32.822Z,62.50
2023-03-07T02:34:59.650Z,62.60
2023-03-07T02:37:38.028Z,62.80
2023-03-07T02:40:08.597Z,62.90
2023-03-07T02:42:38.599Z,62.90
2023-03-07T02:45:13.484Z,63.10
2023-03-07T02:47:43.420Z,63.20
2023-03-07T02:50:14.856Z,63.30
2023-03-07T02:52:45.486Z,63.30
2023-03-07T02:55:13.086Z,63.50
2023-03-07T02:57:46.771Z,63.60
2023-03-07T03:00:14.048Z,63.60
2023-03-07T03:02:41.279Z,63.50
2023-03-07T03:05:08.861Z,63.50
2023-03-07T03:07:35.616Z,64.20
2023-03-07T03:10:02.792Z,63.40
2023-03-07T03:12:31.765Z,63.40
2023-03-07T03:14:59.538Z,63.50
2023-03-07T03:17:26.340Z,63.10
2023-03-07T03:19:53.202Z,62.90
2023-03-07T03:22:20.587Z,62.80
2023-03-07T03:24:49.096Z,62.50
2023-03-07T03:27:17.411Z,62.50
2023-03-07T03:29:46.148Z,62.40
2023-03-07T03:32:13.304Z,62.30
2023-03-07T03:34:43.126Z,62.20
2023-03-07T03:37:09.923Z,62.30
2023-03-07T03:39:37.664Z,62.50
2023-03-07T03:42:06.695Z,62.60
2023-03-07T03:44:33.947Z,62.70
2023-03-07T03:47:01.400Z,62.80
2023-03-07T03:49:29.025Z,62.80
2023-03-07T03:51:55.955Z,62.80
2023-03-07T03:54:23.000Z,62.60
2023-03-07T03:56:49.825Z,62.40
2023-03-07T03:59:16.641Z,62.50
2023-03-07T04:01:43.847Z,62.10
2023-03-07T04:04:11.013Z,61.80
2023-03-07T04:06:38.496Z,61.70
2023-03-07T04:09:05.534Z,61.70
2023-03-07T04:11:33.249Z,61.80
2023-03-07T04:14:00.282Z,61.80
2023-03-07T04:16:27.701Z,61.90
2023-03-07T04:18:55.400Z,61.90
2023-03-07T04:21:23.027Z,62.10
2023-03-07T04:23:55.706Z,62.30
2023-03-07T04:26:24.133Z,62.20
2023-03-07T04:28:51.226Z,62.20
2023-03-07T04:31:41.178Z,62.20
2023-03-07T04:34:08.890Z,62.30
2023-03-07T04:36:35.795Z,62.40
2023-03-07T04:39:02.989Z,62.50
2023-03-07T04:41:30.629Z,62.50
2023-03-07T04:44:04.614Z,62.40
2023-03-07T04:46:31.521Z,62.50
2023-03-07T04:48:58.438Z,62.60
2023-03-07T04:51:25.614Z,62.70
2023-03-07T04:53:52.518Z,62.60
2023-03-07T04:56:19.477Z,62.50
2023-03-07T04:58:47.527Z,62.60
2023-03-07T05:01:15.083Z,62.70
2023-03-07T05:03:42.776Z,62.50
2023-03-07T05:06:14.722Z,62.50
2023-03-07T05:08:43.399Z,62.40
2023-03-07T05:11:10.630Z,62.30
2023-03-07T05:13:37.592Z,62.40
2023-03-07T05:16:05.143Z,62.40
2023-03-07T05:18:31.946Z,62.50
2023-03-07T05:20:59.888Z,62.60
2023-03-07T05:23:27.461Z,62.70
2023-03-07T05:25:55.535Z,62.90
2023-03-07T05:28:22.671Z,63.00
2023-03-07T05:30:49.754Z,63.20
2023-03-07T05:33:16.749Z,63.00
2023-03-07T05:35:43.717Z,63.10
2023-03-07T05:38:12.568Z,62.90
2023-03-07T05:40:40.227Z,62.80
2023-03-07T05:43:08.009Z,63.00
2023-03-07T05:45:35.083Z,62.80
2023-03-07T05:48:02.143Z,63.40
2023-03-07T05:50:30.876Z,62.60
2023-03-07T05:52:58.025Z,62.60
2023-03-07T05:55:27.991Z,62.60
2023-03-07T05:57:54.959Z,62.70
2023-03-07T06:00:22.407Z,62.70
2023-03-07T06:02:55.045Z,62.90
2023-03-07T06:05:23.275Z,62.70
2023-03-07T06:07:51.749Z,62.70
2023-03-07T06:10:18.979Z,62.30
2023-03-07T06:12:50.946Z,62.20
2023-03-07T06:15:18.636Z,62.30
2023-03-07T06:17:47.143Z,62.40
2023-03-07T06:20:14.275Z,62.50
2023-03-07T06:22:41.244Z,62.50
2023-03-07T06:25:09.359Z,62.50
2023-03-07T06:27:37.549Z,62.70
2023-03-07T06:30:06.521Z,62.70
2023-03-07T06:32:33.662Z,62.70
2023-03-07T06:35:02.106Z,62.40
2023-03-07T06:37:29.221Z,62.40
2023-03-07T06:39:58.792Z,62.20
2023-03-07T06:42:25.567Z,62.20
2023-03-07T06:44:54.132Z,62.20
2023-03-07T06:47:21.215Z,62.30
2023-03-07T06:49:48.109Z,62.30
2023-03-07T06:52:14.990Z,62.20
2023-03-07T06:54:41.832Z,62.20
2023-03-07T06:57:08.702Z,62.10
2023-03-07T06:59:35.623Z,62.10
2023-03-07T07:02:03.578Z,62.10
2023-03-07T07:04:30.692Z,62.10
2023-03-07T07:06:57.699Z,62.10
2023-03-07T07:09:25.485Z,62.20
2023-03-07T07:11:52.313Z,62.30
2023-03-07T07:14:19.631Z,62.20
2023-03-07T07:16:46.626Z,62.10
2023-03-07T07:19:13.608Z,62.10
2023-03-07T07:21:41.431Z,61.90
2023-03-07T07:24:11.745Z,61.90
2023-03-07T07:26:38.825Z,61.80
2023-03-07T07:29:05.602Z,61.70
2023-03-07T07:31:32.397Z,61.70
2023-03-07T07:34:00.146Z,61.60
2023-03-07T07:36:29.079Z,61.40
2023-03-07T07:38:55.982Z,61.20
2023-03-07T07:41:23.418Z,61.20
2023-03-07T07:43:54.293Z,61.10
2023-03-07T07:46:42.980Z,60.90
2023-03-07T07:49:10.001Z,60.70
2023-03-07T07:51:37.387Z,60.70
2023-03-07T07:54:04.215Z,60.30
2023-03-07T07:56:31.440Z,60.30
2023-03-07T07:58:58.346Z,59.80
2023-03-07T08:01:25.564Z,59.70
2023-03-07T08:03:52.686Z,59.70
2023-03-07T08:06:21.837Z,59.40
2023-03-07T08:08:49.694Z,59.60
2023-03-07T08:11:17.752Z,58.90
2023-03-07T08:13:45.034Z,58.80
2023-03-07T08:16:22.932Z,58.80
2023-03-07T08:18:53.473Z,58.80
2023-03-07T08:21:21.416Z,58.60
2023-03-07T08:23:48.274Z,58.20
2023-03-07T08:26:15.137Z,58.00
2023-03-07T08:28:42.660Z,57.80
2023-03-07T08:31:12.569Z,57.70
2023-03-07T08:33:39.666Z,57.70
2023-03-07T08:36:07.176Z,57.70
2023-03-07T08:38:34.488Z,57.80
2023-03-07T08:41:05.825Z,57.70
2023-03-07T08:43:33.931Z,57.50
2023-03-07T08:46:00.814Z,57.30
2023-03-07T08:48:28.482Z,57.20
2023-03-07T08:50:55.584Z,56.90
2023-03-07T08:53:22.823Z,56.70
2023-03-07T08:55:49.871Z,56.70
2023-03-07T08:58:16.806Z,56.60
2023-03-07T09:00:43.606Z,56.70
2023-03-07T09:03:10.522Z,56.40
2023-03-07T09:05:41.242Z,56.70
2023-03-07T09:08:08.656Z,56.20
2023-03-07T09:10:36.732Z,56.10
2023-03-07T09:13:03.609Z,56.20
2023-03-07T09:15:30.408Z,56.00
2023-03-07T09:17:57.241Z,55.90
2023-03-07T09:20:24.842Z,55.70
2023-03-07T09:22:53.675Z,55.80
2023-03-07T09:25:20.515Z,55.70
2023-03-07T09:27:47.733Z,55.60
2023-03-07T09:30:15.584Z,55.50
2023-03-07T09:32:42.786Z,55.60
2023-03-07T09:35:10.374Z,55.60
2023-03-07T09:37:37.351Z,55.30
2023-03-07T09:40:07.375Z,55.20
2023-03-07T09:42:52.277Z,55.20
2023-03-07T09:45:21.665Z,55.00
2023-03-07T09:48:10.028Z,54.90
2023-03-07T09:50:55.994Z,54.90
2023-03-07T09:53:31.765Z,54.80
2023-03-07T09:56:02.980Z,54.80
2023-03-07T09:58:29.906Z,54.90
2023-03-07T10:01:01.395Z,54.80
2023-03-07T10:03:38.414Z,54.70
2023-03-07T10:06:23.216Z,54.40
2023-03-07T10:08:50.128Z,54.40
2023-03-07T10:11:58.305Z,54.20
2023-03-07T10:14:57.131Z,54.20
2023-03-07T10:17:23.889Z,54.00
2023-03-07T10:20:04.493Z,54.00
2023-03-07T10:22:43.727Z,53.90
2023-03-07T10:25:28.583Z,53.70
2023-03-07T10:28:02.848Z,53.40
2023-03-07T10:30:32.671Z,53.50
2023-03-07T10:33:01.466Z,53.20
2023-03-07T10:35:43.554Z,52.80
2023-03-07T10:38:33.129Z,53.10
2023-03-07T10:41:13.998Z,52.90
2023-03-07T10:43:42.003Z,52.70
2023-03-07T10:46:25.278Z,52.60
2023-03-07T10:49:02.855Z,52.50
2023-03-07T10:51:45.161Z,52.40
2023-03-07T10:54:21.372Z,52.40
2023-03-07T10:57:07.480Z,52.80
2023-03-07T10:59:35.690Z,52.20
2023-03-07T11:02:15.984Z,51.90
2023-03-07T11:04:45.940Z,51.90
2023-03-07T11:07:34.952Z,51.80
2023-03-07T11:10:22.780Z,51.90
2023-03-07T11:12:49.557Z,51.60
2023-03-07T11:15:24.255Z,51.50
2023-03-07T11:17:52.550Z,50.90
2023-03-07T11:20:46.297Z,50.80
2023-03-07T11:23:26.187Z,50.80
2023-03-07T11:25:55.473Z,50.60
2023-03-07T11:28:30.376Z,50.60
2023-03-07T11:31:25.573Z,50.50
2023-03-07T11:34:27.722Z,50.40
2023-03-07T11:36:57.344Z,49.80
2023-03-07T11:39:33.375Z,50.10
2023-03-07T11:42:06.540Z,49.80
2023-03-07T11:44:45.286Z,50.10
2023-03-07T11:47:43.267Z,50.00
2023-03-07T11:50:26.653Z,49.90
2023-03-07T11:53:21.473Z,49.00
2023-03-07T11:55:57.802Z,48.70
2023-03-07T11:58:33.263Z,49.30
2023-03-07T12:01:02.799Z,49.20
2023-03-07T12:03:30.317Z,48.80
2023-03-07T12:06:21.264Z,48.70
2023-03-07T12:09:20.302Z,48.50
2023-03-07T12:11:56.213Z,48.10
2023-03-07T12:14:32.455Z,48.10
2023-03-07T12:17:23.956Z,48.20
2023-03-07T12:20:10.226Z,48.20
2023-03-07T12:22:58.109Z,48.70
2023-03-07T12:25:47.335Z,48.20
2023-03-07T12:28:30.176Z,48.10
2023-03-07T12:31:14.854Z,48.30
2023-03-07T12:33:50.664Z,48.10
2023-03-07T12:36:49.967Z,48.60
2023-03-07T12:39:46.650Z,49.00
2023-03-07T12:42:41.659Z,48.80
2023-03-07T12:45:08.461Z,48.10
2023-03-07T12:47:38.169Z,48.10
2023-03-07T12:50:16.058Z,48.40
2023-03-07T12:52:48.126Z,48.30
2023-03-07T12:55:39.169Z,48.70
2023-03-07T12:58:24.201Z,48.90
2023-03-07T13:00:58.181Z,48.10
2023-03-07T13:03:56.428Z,48.20
2023-03-07T13:06:25.195Z,48.00
2023-03-07T13:08:55.072Z,47.90
2023-03-07T13:11:27.897Z,48.20
2023-03-07T13:14:05.614Z,48.50
2023-03-07T13:16:39.657Z,48.60
2023-03-07T13:19:31.043Z,48.70
2023-03-07T13:21:58.624Z,48.80
2023-03-07T13:24:40.078Z,48.50
2023-03-07T13:27:41.679Z,48.70
2023-03-07T13:30:08.418Z,48.50
2023-03-07T13:32:56.534Z,48.20
2023-03-07T13:35:32.122Z,48.50
2023-03-07T13:38:15.202Z,48.50
2023-03-07T13:40:45.027Z,48.00
2023-03-07T13:43:27.046Z,47.40
2023-03-07T13:45:59.680Z,47.60
2023-03-07T13:48:32.384Z,47.60
2023-03-07T13:50:59.185Z,47.20
2023-03-07T13:53:31.524Z,47.20
2023-03-07T13:56:17.297Z,46.80
2023-03-07T13:59:22.528Z,47.20
2023-03-07T14:02:01.044Z,46.70
2023-03-07T14:04:44.785Z,46.80
2023-03-07T14:07:28.303Z,46.20
2023-03-07T14:10:01.221Z,46.00
2023-03-07T14:13:01.080Z,46.10
2023-03-07T14:15:42.767Z,46.50
2023-03-07T14:18:39.265Z,46.80
2023-03-07T14:21:18.137Z,46.70
2023-03-07T14:23:51.563Z,46.40
2023-03-07T14:26:20.106Z,46.50
2023-03-07T14:28:58.722Z,46.60
2023-03-07T14:31:36.657Z,47.30
2023-03-07T14:34:17.635Z,46.80
2023-03-07T14:36:46.252Z,46.30
2023-03-07T14:39:14.717Z,46.60
2023-03-07T14:42:06.490Z,46.40
2023-03-07T14:44:39.478Z,46.50
2023-03-07T14:47:10.853Z,46.40
2023-03-07T14:49:51.079Z,46.80
2023-03-07T14:52:30.517Z,46.40
2023-03-07T14:55:04.637Z,46.30
2023-03-07T14:57:36.561Z,46.70
2023-03-07T15:00:24.463Z,46.80
2023-03-07T15:03:08.046Z,46.20
2023-03-07T15:05:48.598Z,46.40
2023-03-07T15:08:38.274Z,46.10
2023-03-07T15:11:13.419Z,46.60
2023-03-07T15:13:46.393Z,46.90
2023-03-07T15:16:26.199Z,45.60
2023-03-07T15:19:00.531Z,45.50
2023-03-07T15:21:36.830Z,46.20
2023-03-07T15:24:04.295Z,46.80
2023-03-07T15:26:33.021Z,46.80
2023-03-07T15:29:04.064Z,46.40
2023-03-07T15:31:48.817Z,46.90
2023-03-07T15:34:23.978Z,46.20
2023-03-07T15:36:50.893Z,46.70
2023-03-07T15:39:34.541Z,46.90
2023-03-07T15:42:19.460Z,46.90
2023-03-07T15:44:54.302Z,46.50
2023-03-07T15:47:22.345Z,46.90
2023-03-07T15:50:04.115Z,47.60
2023-03-07T15:52:37.440Z,47.50
2023-03-07T15:55:16.170Z,46.70
2023-03-07T15:57:59.131Z,46.70
2023-03-07T16:00:39.195Z,46.40
2023-03-07T16:03:29.163Z,45.80
2023-03-07T16:05:58.683Z,46.00
2023-03-07T16:08:26.116Z,46.60
2023-03-07T16:10:59.315Z,46.60
2023-03-07T16:13:30.589Z,46.40
2023-03-07T16:16:15.417Z,46.10
2023-03-07T16:18:43.110Z,46.00
2023-03-07T16:21:13.869Z,45.90
2023-03-07T16:23:40.910Z,46.40
2023-03-07T16:26:11.831Z,46.30
2023-03-07T16:28:39.876Z,46.30
2023-03-07T16:31:14.697Z,46.50
2023-03-07T16:33:42.235Z,46.10
2023-03-07T16:36:10.878Z,46.70
2023-03-07T16:38:37.709Z,47.60
2023-03-07T16:41:10.581Z,48.50
2023-03-07T16:43:40.094Z,48.90
2023-03-07T16:46:14.108Z,49.40
2023-03-07T16:48:41.922Z,49.30
2023-03-07T16:51:16.907Z,49.70
2023-03-07T16:53:48.354Z,50.10
2023-03-07T16:56:23.661Z,50.30
2023-03-07T16:58:50.825Z,50.50
2023-03-07T17:01:18.023Z,50.60
2023-03-07T17:03:45.031Z,50.30
2023-03-07T17:06:16.660Z,50.50
2023-03-07T17:08:44.919Z,51.10
2023-03-07T17:11:22.154Z,51.40
2023-03-07T17:13:52.306Z,51.40
2023-03-07T17:16:19.781Z,51.40
2023-03-07T17:18:46.835Z,51.40
2023-03-07T17:21:20.297Z,51.20
2023-03-07T17:23:49.188Z,51.30
2023-03-07T17:26:39.621Z,51.30
2023-03-07T17:29:11.770Z,51.40
2023-03-07T17:31:38.652Z,51.60
2023-03-07T17:34:05.499Z,51.00
2023-03-07T17:36:32.482Z,51.00
2023-03-07T17:38:59.367Z,51.10
2023-03-07T17:41:26.223Z,51.00
2023-03-07T17:43:53.163Z,51.00
2023-03-07T17:46:21.093Z,51.30
2023-03-07T17:48:48.090Z,51.40
2023-03-07T17:51:15.092Z,51.60
2023-03-07T17:53:42.021Z,51.60
2023-03-07T17:56:10.583Z,51.90
2023-03-07T17:58:38.548Z,51.90
2023-03-07T18:01:11.317Z,52.00
2023-03-07T18:03:39.167Z,52.00
2023-03-07T18:06:06.612Z,51.90
2023-03-07T18:08:33.776Z,51.80
2023-03-07T18:11:09.811Z,51.70
2023-03-07T18:13:37.618Z,51.40
2023-03-07T18:16:05.721Z,51.40
2023-03-07T18:18:35.214Z,51.20
2023-03-07T18:21:14.263Z,51.20
2023-03-07T18:23:41.425Z,51.60
2023-03-07T18:26:11.508Z,51.50
2023-03-07T18:28:41.106Z,51.30
2023-03-07T18:31:13.724Z,51.50
2023-03-07T18:33:40.778Z,51.50
2023-03-07T18:36:16.206Z,51.40
2023-03-07T18:38:43.598Z,51.70
2023-03-07T18:41:11.417Z,51.60
2023-03-07T18:43:39.237Z,51.50
2023-03-07T18:46:11.712Z,51.70
2023-03-07T18:48:38.613Z,51.90
2023-03-07T18:51:07.843Z,51.90
2023-03-07T18:53:35.521Z,52.30
2023-03-07T18:56:13.528Z,52.50
2023-03-07T18:58:41.376Z,52.80
2023-03-07T19:01:14.482Z,53.30
2023-03-07T19:03:42.128Z,53.70
2023-03-07T19:06:10.182Z,54.10
2023-03-07T19:08:37.088Z,54.40
2023-03-07T19:11:05.455Z,54.80
2023-03-07T19:13:33.347Z,55.10
2023-03-07T19:16:04.318Z,55.40
2023-03-07T19:18:31.714Z,55.40
2023-03-07T19:20:58.686Z,55.30
2023-03-07T19:23:25.633Z,55.30
2023-03-07T19:25:52.425Z,55.30
2023-03-07T19:28:19.326Z,55.40
2023-03-07T19:30:46.453Z,55.20
2023-03-07T19:33:13.227Z,55.00
2023-03-07T19:35:40.228Z,54.80
2023-03-07T19:38:07.197Z,54.70
2023-03-07T19:40:33.946Z,54.60
2023-03-07T19:43:00.698Z,54.50
2023-03-07T19:45:27.886Z,54.40
2023-03-07T19:47:54.735Z,54.50
2023-03-07T19:50:21.785Z,54.50
2023-03-07T19:52:48.750Z,54.60
2023-03-07T19:55:15.811Z,54.60
2023-03-07T19:57:42.771Z,54.80
2023-03-07T20:00:10.211Z,54.90
2023-03-07T20:02:39.630Z,55.00
2023-03-07T20:05:08.192Z,55.10
2023-03-07T20:07:35.118Z,55.20
2023-03-07T20:10:01.995Z,55.10
2023-03-07T20:12:32.191Z,54.90
2023-03-07T20:14:59.683Z,54.80
2023-03-07T20:17:26.578Z,54.80
2023-03-07T20:19:55.309Z,54.80
2023-03-07T20:22:23.568Z,55.00
2023-03-07T20:24:51.817Z,55.00
2023-03-07T20:27:21.822Z,55.00
2023-03-07T20:29:49.468Z,55.10
2023-03-07T20:32:16.653Z,55.30
2023-03-07T20:34:43.706Z,55.30
2023-03-07T20:37:10.946Z,55.30
2023-03-07T20:39:39.101Z,55.30
2023-03-07T20:42:06.275Z,55.70
2023-03-07T20:44:33.346Z,55.90
2023-03-07T20:47:00.411Z,55.90
2023-03-07T20:49:27.615Z,55.90
2023-03-07T20:51:54.595Z,56.00
2023-03-07T20:54:21.637Z,56.00
2023-03-07T20:56:48.498Z,56.00
2023-03-07T20:59:18.546Z,55.90
2023-03-07T21:01:45.746Z,55.90
2023-03-07T21:04:15.078Z,56.20
2023-03-07T21:06:44.080Z,56.50
2023-03-07T21:09:12.343Z,55.80
2023-03-07T21:11:47.583Z,55.60
2023-03-07T21:14:15.677Z,55.50
2023-03-07T21:16:43.914Z,55.10
2023-03-07T21:19:11.575Z,54.80
2023-03-07T21:21:40.208Z,54.50
2023-03-07T21:24:07.515Z,54.60
2023-03-07T21:26:38.563Z,54.80
2023-03-07T21:29:05.753Z,54.80
2023-03-07T21:31:35.057Z,55.20
2023-03-07T21:34:08.388Z,56.30
2023-03-07T21:36:35.605Z,56.40
2023-03-07T21:39:04.273Z,56.40
2023-03-07T21:41:31.373Z,56.30
2023-03-07T21:43:59.168Z,55.40
2023-03-07T21:46:26.457Z,55.30
2023-03-07T21:48:54.001Z,55.20
2023-03-07T21:51:21.600Z,55.30
2023-03-07T21:53:48.631Z,55.50
2023-03-07T21:56:17.357Z,55.90
2023-03-07T21:58:48.041Z,56.00
2023-03-07T22:01:19.578Z,55.70
2023-03-07T22:03:47.326Z,55.40
2023-03-07T22:06:15.075Z,55.10
2023-03-07T22:08:41.957Z,54.90
2023-03-07T22:11:10.623Z,54.70
2023-03-07T22:13:39.556Z,54.80
2023-03-07T22:16:10.448Z,54.80
2023-03-07T22:18:37.639Z,54.70
2023-03-07T22:21:18.271Z,54.20
2023-03-07T22:23:45.826Z,54.10
2023-03-07T22:26:13.345Z,54.40
2023-03-07T22:28:41.117Z,55.40
2023-03-07T22:31:11.323Z,55.80
2023-03-07T22:33:39.049Z,55.80
2023-03-07T22:36:06.634Z,56.10
2023-03-07T22:38:34.163Z,56.10
2023-03-07T22:41:01.665Z,55.70
2023-03-07T22:43:30.285Z,55.50
2023-03-07T22:45:57.065Z,55.40
2023-03-07T22:48:23.992Z,55.80
2023-03-07T22:50:50.796Z,56.00
2023-03-07T22:53:17.674Z,56.20
2023-03-07T22:55:44.815Z,55.70
2023-03-07T22:58:12.832Z,55.70
2023-03-07T23:00:41.475Z,55.70
2023-03-07T23:03:08.529Z,56.30
2023-03-07T23:05:36.414Z,56.00
2023-03-07T23:08:04.240Z,56.20
2023-03-07T23:10:31.577Z,56.30
2023-03-07T23:12:58.466Z,56.40
2023-03-07T23:15:25.712Z,56.60
2023-03-07T23:17:52.714Z,56.30
2023-03-07T23:20:19.918Z,56.30
2023-03-07T23:22:47.060Z,56.40
2023-03-07T23:25:15.041Z,56.40
2023-03-07T23:27:41.911Z,56.40
2023-03-07T23:30:09.814Z,56.50
2023-03-07T23:32:36.963Z,56.10
2023-03-07T23:35:04.472Z,55.80
2023-03-07T23:37:31.908Z,55.30
2023-03-07T23:40:00.706Z,54.80
2023-03-07T23:42:27.615Z,54.50
2023-03-07T23:44:54.416Z,54.40
2023-03-07T23:47:21.182Z,54.40
2023-03-07T23:49:48.085Z,54.50
2023-03-07T23:52:14.926Z,54.60
2023-03-07T23:54:45.041Z,54.40
2023-03-07T23:57:11.849Z,54.20
2023-03-07T23:59:38.625Z,54.00
